Time;durP1;ratioP1;P1;durP2;ratioP2;P2;SDS_P1;SDS_P2;PMS_P1;PMS_P2;Temp;Humidity;BMP_temperature;BMP_pressure;BME280_temperature;BME280_humidity;BME280_pressure;Samples;Min_cycle;Max_cycle;Signal;HPM_P1;HPM_P2
2023/09/21 00:00:20;;;;;;;;;4.00;4.00;;;;;21.59;60.54;99594.06;5017771;28;45388;-69
2023/09/21 00:02:50;;;;;;;;;5.00;4.67;;;;;21.42;60.49;99565.13;5016475;28;45533;-69
2023/09/21 00:05:22;;;;;;;;;4.33;4.00;;;;;21.49;60.56;99573.91;5025546;28;45436;-69
2023/09/21 00:07:48;;;;;;;;;6.50;3.00;;;;;21.55;60.62;99582.94;5027949;28;45747;-69
2023/09/21 00:10:14;;;;;;;;;4.33;4.33;;;;;21.49;60.26;99568.50;5030605;28;45308;-69
2023/09/21 00:12:40;;;;;;;;;5.00;4.00;;;;;21.53;60.14;99577.75;5033613;28;46052;-68
2023/09/21 00:15:06;;;;;;;;;6.00;4.00;;;;;21.13;60.50;99521.06;5030741;28;45331;-68
2023/09/21 00:17:34;;;;;;;;;3.00;3.00;;;;;21.43;60.31;99572.19;5021130;28;46761;-72
2023/09/21 00:20:10;;;;;;;;;2.00;2.00;;;;;21.45;60.34;99580.88;5036993;28;45429;-70
2023/09/21 00:22:36;;;;;;;;;3.00;3.00;;;;;21.42;60.53;99569.69;5002403;28;45457;-69
2023/09/21 00:25:07;;;;;;;;;2.25;2.25;;;;;21.48;60.38;99579.56;5021241;28;45407;-69
2023/09/21 00:27:33;;;;;;;;;3.00;3.00;;;;;21.44;60.30;99554.91;5029079;28;45612;-69
2023/09/21 00:29:58;;;;;;;;;4.00;4.00;;;;;21.34;60.72;99543.06;5017345;28;45442;-69
2023/09/21 00:32:25;;;;;;;;;4.33;4.33;;;;;21.42;61.38;99558.88;5017667;28;45483;-69
2023/09/21 00:34:52;;;;;;;;;4.33;4.33;;;;;21.40;61.22;99561.84;5017368;28;45603;-69
2023/09/21 00:37:17;;;;;;;;;7.00;6.00;;;;;21.29;60.90;99543.00;5016762;28;46306;-68
2023/09/21 00:39:42;;;;;;;;;4.33;4.33;;;;;21.42;61.01;99565.13;5025706;28;45497;-69
2023/09/21 00:42:08;;;;;;;;;5.00;5.00;;;;;21.33;61.34;99544.97;5024978;28;45369;-69
2023/09/21 00:44:33;;;;;;;;;7.67;5.33;;;;;21.13;61.05;99490.50;5025016;28;45392;-69
2023/09/21 00:47:00;;;;;;;;;3.33;3.33;;;;;21.33;60.99;99534.16;5025383;28;47756;-68
2023/09/21 00:49:26;;;;;;;;;4.33;3.33;;;;;21.36;61.54;99549.88;5031565;28;45404;-68
2023/09/21 00:51:54;;;;;;;;;2.50;2.00;;;;;21.34;61.38;99551.19;5028138;28;45318;-68
2023/09/21 00:54:21;;;;;;;;;2.00;2.00;;;;;21.16;61.30;99515.16;5024128;28;45452;-69
2023/09/21 00:56:48;;;;;;;;;2.00;2.00;;;;;21.36;61.32;99554.47;5016787;28;47640;-68
2023/09/21 00:59:15;;;;;;;;;3.00;3.00;;;;;21.36;61.15;99549.06;5010560;28;45561;-68
2023/09/21 01:01:41;;;;;;;;;3.00;2.00;;;;;21.35;62.14;99548.22;5027893;28;45421;-68
2023/09/21 01:04:06;;;;;;;;;3.00;3.00;;;;;21.14;62.57;99517.28;5002442;28;45656;-68
2023/09/21 01:06:33;;;;;;;;;3.25;2.50;;;;;21.15;63.90;99523.50;5029877;28;46774;-68
2023/09/21 01:08:58;;;;;;;;;4.67;3.00;;;;;20.86;64.48;99496.50;5018851;28;46854;-69
2023/09/21 01:11:24;;;;;;;;;3.00;3.00;;;;;21.14;64.77;99540.78;5023464;28;45247;-68
2023/09/21 01:13:51;;;;;;;;;3.75;3.75;;;;;21.07;65.20;99542.84;5017126;28;45446;-68
2023/09/21 01:16:17;;;;;;;;;3.33;3.33;;;;;21.00;65.65;99534.03;5028907;28;47703;-69
2023/09/21 01:18:42;;;;;;;;;4.00;3.00;;;;;21.02;65.98;99550.81;5028800;28;46365;-69
2023/09/21 01:21:09;;;;;;;;;3.25;3.25;;;;;20.92;66.13;99527.97;5017010;28;45454;-68
2023/09/21 01:23:46;;;;;;;;;2.00;2.00;;;;;20.98;65.95;99546.97;5028660;28;45434;-69
2023/09/21 01:26:14;;;;;;;;;1.25;1.25;;;;;20.96;66.05;99534.50;5025160;28;46745;-68
2023/09/21 01:28:40;;;;;;;;;2.75;2.50;;;;;20.96;66.50;99542.63;5012934;28;45742;-69
2023/09/21 01:31:05;;;;;;;;;3.00;3.00;;;;;20.88;66.96;99539.50;5018181;28;45479;-69
2023/09/21 01:33:33;;;;;;;;;2.25;2.25;;;;;20.87;67.74;99541.38;5016863;28;45262;-69
2023/09/21 01:35:59;;;;;;;;;3.75;3.00;;;;;20.79;68.22;99517.44;5016388;28;47163;-68
2023/09/21 01:38:26;;;;;;;;;3.75;3.75;;;;;20.49;68.51;99492.53;5016748;28;45763;-69
2023/09/21 01:40:53;;;;;;;;;4.50;2.50;;;;;20.73;68.74;99534.59;5016405;28;45240;-68
2023/09/21 01:43:18;;;;;;;;;3.00;3.00;;;;;20.63;69.08;99523.63;5024427;28;45708;-69
2023/09/21 01:45:48;;;;;;;;;3.33;3.33;;;;;20.65;69.43;99532.28;5016147;28;53010;-69
2023/09/21 01:48:15;;;;;;;;;3.33;3.33;;;;;20.39;69.60;99473.38;5018472;28;45507;-68
2023/09/21 01:50:48;;;;;;;;;2.00;2.00;;;;;20.61;69.90;99520.31;5018163;28;45448;-82
2023/09/21 01:53:19;;;;;;;;;4.25;4.25;;;;;20.63;70.58;99524.44;5019752;28;45471;-69
2023/09/21 01:55:47;;;;;;;;;5.67;4.00;;;;;20.57;70.87;99516.44;5027078;28;46519;-71
2023/09/21 01:58:14;;;;;;;;;2.25;2.25;;;;;20.49;71.17;99525.75;5018314;28;45285;-69
2023/09/21 02:00:41;;;;;;;;;4.33;4.33;;;;;20.50;72.00;99518.47;5029140;28;45381;-69
2023/09/21 02:03:12;;;;;;;;;3.00;3.00;;;;;20.43;71.75;99509.69;5018207;28;45282;-73
2023/09/21 02:05:41;;;;;;;;;3.33;3.33;;;;;20.38;72.42;99499.56;5019379;28;46426;-69
2023/09/21 02:08:09;;;;;;;;;2.50;2.50;;;;;20.35;72.76;99494.63;5020531;28;45353;-68
2023/09/21 02:10:36;;;;;;;;;2.25;2.25;;;;;20.31;72.90;99494.28;5024727;28;45440;-69
2023/09/21 02:13:06;;;;;;;;;2.33;2.33;;;;;20.28;73.33;99488.56;5016862;28;45340;-70
2023/09/21 02:15:34;;;;;;;;;3.00;3.00;;;;;20.21;73.61;99477.88;5023980;28;45600;-68
2023/09/21 02:18:02;;;;;;;;;3.50;2.00;;;;;20.24;73.17;99471.22;5024512;28;45428;-70
2023/09/21 02:20:29;;;;;;;;;2.25;2.25;;;;;20.17;74.05;99468.63;5015797;28;45323;-70
2023/09/21 02:23:00;;;;;;;;;5.00;4.00;;;;;19.79;74.56;99411.66;5020186;28;45322;-69
2023/09/21 02:25:27;;;;;;;;;4.67;3.67;;;;;20.10;74.80;99461.72;5019563;28;47496;-70
2023/09/21 02:27:52;;;;;;;;;3.00;3.00;;;;;19.95;75.41;99454.09;5032492;28;45494;-69
2023/09/21 02:30:21;;;;;;;;;1.75;0.25;;;;;19.63;75.75;99395.16;5023050;28;45780;-69
2023/09/21 02:32:55;;;;;;;;;3.00;3.00;;;;;19.82;76.17;99446.25;5028166;28;45522;-70
2023/09/21 02:35:24;;;;;;;;;3.00;3.00;;;;;19.91;76.49;99440.28;5030511;28;45473;-69
2023/09/21 02:37:51;;;;;;;;;4.00;2.75;;;;;19.90;76.77;99444.03;5037166;28;45621;-69
2023/09/21 02:40:19;;;;;;;;;2.75;1.50;;;;;19.86;76.52;99448.25;5026962;28;45471;-69
2023/09/21 02:42:47;;;;;;;;;3.00;3.00;;;;;19.95;76.41;99446.00;5035902;28;45437;-76
2023/09/21 02:45:13;;;;;;;;;2.33;2.33;;;;;19.98;76.51;99442.84;5019232;28;46526;-69
2023/09/21 02:47:41;;;;;;;;;3.67;3.00;;;;;19.95;76.37;99435.22;5033446;28;45436;-70
2023/09/21 02:50:27;;;;;;;;;4.00;2.00;;;;;19.85;77.04;99418.84;5020245;28;45526;-70
2023/09/21 02:52:55;;;;;;;;;2.50;2.50;;;;;19.86;76.93;99421.28;5018975;28;45420;-69
2023/09/21 02:55:26;;;;;;;;;3.00;3.00;;;;;19.57;77.06;99369.13;5034899;28;46543;-68
2023/09/21 02:57:58;;;;;;;;;2.00;2.00;;;;;19.61;76.83;99381.09;5019270;28;45582;-68
2023/09/21 03:02:55;;;;;;;;;1.00;1.00;;;;;19.79;77.60;99403.56;5038737;28;45277;-68
2023/09/21 03:05:21;;;;;;;;;2.00;2.00;;;;;19.80;77.38;99405.22;5019749;28;46169;-69
2023/09/21 03:07:48;;;;;;;;;3.25;2.00;;;;;19.77;77.67;99395.72;5023069;28;45597;-69
2023/09/21 03:10:15;;;;;;;;;3.50;2.50;;;;;19.85;77.40;99408.03;5021876;28;45273;-70
2023/09/21 03:12:41;;;;;;;;;4.25;4.25;;;;;19.79;77.54;99395.50;5018839;28;45309;-69
2023/09/21 03:15:08;;;;;;;;;4.00;3.33;;;;;19.75;77.71;99398.66;5024966;28;46591;-69
2023/09/21 03:17:38;;;;;;;;;1.25;0.75;;;;;19.82;77.89;99414.72;5019611;28;45325;-69
2023/09/21 03:20:09;;;;;;;;;0.75;0.75;;;;;19.83;77.70;99415.56;5018699;28;45412;-69
2023/09/21 03:22:35;;;;;;;;;3.50;2.25;;;;;19.77;78.11;99411.91;5019088;28;45368;-69
2023/09/21 03:25:00;;;;;;;;;1.75;1.75;;;;;19.79;77.52;99408.97;5018674;28;45647;-70
2023/09/21 03:27:25;;;;;;;;;1.00;1.00;;;;;19.72;77.82;99396.44;5018686;28;45337;-67
2023/09/21 03:29:51;;;;;;;;;2.00;2.00;;;;;19.91;77.71;99413.31;5026328;28;45275;-69
2023/09/21 03:32:17;;;;;;;;;2.00;2.00;;;;;19.85;77.63;99389.16;5018584;28;45420;-70
2023/09/21 03:34:43;;;;;;;;;2.00;2.00;;;;;19.88;77.61;99386.00;5027146;28;45637;-69
2023/09/21 03:37:12;;;;;;;;;2.00;2.00;;;;;19.93;77.63;99394.19;5025715;28;45551;-69
2023/09/21 03:39:37;;;;;;;;;2.00;2.00;;;;;19.84;77.70;99379.44;5025503;28;45386;-69
2023/09/21 03:42:03;;;;;;;;;2.00;2.00;;;;;19.87;78.21;99398.66;5026754;28;45392;-69
2023/09/21 03:44:30;;;;;;;;;1.75;1.75;;;;;19.90;78.06;99400.06;5017298;28;46291;-69
2023/09/21 03:46:55;;;;;;;;;2.25;2.25;;;;;19.88;77.96;99396.78;5018076;28;45368;-69
2023/09/21 03:49:21;;;;;;;;;1.00;1.00;;;;;19.78;78.25;99388.44;5018366;28;45240;-69
2023/09/21 03:51:47;;;;;;;;;2.00;1.50;;;;;19.85;78.26;99394.56;5033377;28;45325;-68
2023/09/21 03:54:13;;;;;;;;;1.00;1.00;;;;;19.84;78.33;99391.03;5029260;28;45669;-69
2023/09/21 03:56:39;;;;;;;;;1.00;1.00;;;;;19.84;78.22;99392.91;5037464;28;45357;-69
2023/09/21 03:59:06;;;;;;;;;1.50;1.50;;;;;19.87;78.19;99393.25;5020306;28;45254;-68
2023/09/21 04:01:34;;;;;;;;;2.00;2.00;;;;;19.91;77.77;99388.22;5017895;28;45490;-69
2023/09/21 04:04:05;;;;;;;;;2.00;2.00;;;;;19.93;77.50;99389.59;5008159;28;45752;-68
2023/09/21 04:06:31;;;;;;;;;1.50;1.50;;;;;19.96;77.43;99396.41;5025208;28;45665;-69
2023/09/21 04:08:57;;;;;;;;;1.00;1.00;;;;;19.86;77.68;99385.41;5017821;28;45265;-69
2023/09/21 04:11:22;;;;;;;;;2.00;1.75;;;;;19.89;77.99;99390.31;5027439;28;45318;-69
2023/09/21 04:13:47;;;;;;;;;1.25;1.25;;;;;19.85;77.85;99391.88;5024102;28;47652;-68
2023/09/21 04:16:13;;;;;;;;;3.00;2.00;;;;;19.80;77.92;99378.25;5017719;28;45327;-67
2023/09/21 04:18:38;;;;;;;;;1.00;1.00;;;;;19.86;77.95;99393.50;5019801;28;45551;-69
2023/09/21 04:21:08;;;;;;;;;2.00;1.00;;;;;19.87;77.82;99395.13;5036984;28;45368;-69
2023/09/21 04:23:33;;;;;;;;;2.50;2.50;;;;;19.84;77.76;99374.84;5020576;28;45837;-69
2023/09/21 04:25:58;;;;;;;;;4.00;1.00;;;;;19.85;77.35;99376.50;5028500;28;46041;-69
2023/09/21 04:28:23;;;;;;;;;2.25;1.50;;;;;19.95;77.68;99386.66;5020984;28;45491;-69
2023/09/21 04:30:50;;;;;;;;;1.75;0.25;;;;;19.92;77.45;99371.78;5017580;28;45249;-69
2023/09/21 04:33:15;;;;;;;;;3.00;2.75;;;;;19.72;77.83;99347.09;5017601;28;46443;-68
2023/09/21 04:35:40;;;;;;;;;3.00;2.33;;;;;19.93;77.60;99373.41;5017181;28;45569;-68
2023/09/21 04:38:06;;;;;;;;;3.50;3.25;;;;;19.87;77.66;99366.28;5017519;28;45459;-69
2023/09/21 04:40:31;;;;;;;;;2.50;1.00;;;;;19.88;77.63;99369.81;5019478;28;45571;-75
2023/09/21 04:42:57;;;;;;;;;3.75;2.50;;;;;19.90;77.73;99365.81;5020171;28;58193;-69
2023/09/21 04:45:22;;;;;;;;;3.00;2.00;;;;;19.84;77.42;99349.78;5021971;28;45730;-68
2023/09/21 04:47:53;;;;;;;;;2.50;2.50;;;;;19.89;77.28;99350.69;5017479;28;45294;-68
2023/09/21 04:50:18;;;;;;;;;1.00;1.00;;;;;19.91;77.57;99356.66;5015640;28;45267;-68
2023/09/21 04:52:45;;;;;;;;;2.25;2.25;;;;;19.89;77.60;99356.06;5016554;28;45977;-69
2023/09/21 04:55:10;;;;;;;;;2.00;2.00;;;;;19.85;77.29;99340.63;5028797;28;45351;-68
2023/09/21 04:57:36;;;;;;;;;2.00;2.00;;;;;19.87;77.52;99341.19;5003179;28;45420;-69
2023/09/21 05:00:07;;;;;;;;;3.00;3.00;;;;;19.82;77.58;99327.59;5017047;28;45442;-70
2023/09/21 05:02:33;;;;;;;;;3.33;3.33;;;;;19.85;77.37;99329.81;5031373;28;46489;-69
2023/09/21 05:04:59;;;;;;;;;3.50;2.25;;;;;19.81;77.55;99328.66;5028165;28;45226;-68
2023/09/21 05:07:24;;;;;;;;;3.00;3.00;;;;;19.74;77.70;99326.91;5028099;28;45433;-68
2023/09/21 05:09:50;;;;;;;;;2.67;1.00;;;;;19.73;77.58;99308.28;5019337;28;45499;-70
2023/09/21 05:12:18;;;;;;;;;3.67;3.00;;;;;19.74;77.54;99316.13;5016675;28;46684;-68
2023/09/21 05:14:47;;;;;;;;;3.75;3.00;;;;;19.67;77.70;99314.63;5017004;28;45543;-69
2023/09/21 05:17:16;;;;;;;;;2.33;2.33;;;;;19.66;77.59;99319.19;5027915;28;45538;-68
2023/09/21 05:19:41;;;;;;;;;2.00;2.00;;;;;19.63;77.92;99310.78;5028460;28;45431;-69
2023/09/21 05:22:09;;;;;;;;;3.00;2.50;;;;;19.62;78.18;99318.03;5032880;28;59965;-69
2023/09/21 05:24:35;;;;;;;;;4.00;4.00;;;;;19.48;78.24;99296.94;5016676;28;45517;-69
2023/09/21 05:27:01;;;;;;;;;2.00;2.00;;;;;19.57;78.09;99320.59;5025790;28;45249;-69
2023/09/21 05:29:26;;;;;;;;;3.67;3.67;;;;;19.53;78.24;99318.59;5036237;28;45287;-69
2023/09/21 05:31:52;;;;;;;;;5.33;3.00;;;;;19.48;78.44;99313.94;5027118;28;47974;-69
2023/09/21 05:34:17;;;;;;;;;4.00;3.50;;;;;19.44;78.31;99307.38;5024049;28;45474;-69
2023/09/21 05:36:46;;;;;;;;;4.33;3.67;;;;;19.50;78.42;99319.06;5016247;28;45465;-68
2023/09/21 05:39:17;;;;;;;;;3.00;3.00;;;;;19.50;78.49;99325.28;5018131;28;45479;-69
2023/09/21 05:41:43;;;;;;;;;5.00;5.00;;;;;19.46;78.04;99318.72;5022203;28;47338;-68
2023/09/21 05:44:09;;;;;;;;;4.00;3.00;;;;;19.51;78.11;99320.72;5016507;28;45456;-69
2023/09/21 05:46:34;;;;;;;;;5.67;4.33;;;;;19.44;78.49;99327.06;5016640;28;45353;-68
2023/09/21 05:48:59;;;;;;;;;4.33;3.00;;;;;19.48;78.28;99332.78;5018354;28;45499;-70
2023/09/21 05:51:25;;;;;;;;;4.33;4.00;;;;;19.51;78.20;99331.50;5026933;28;64153;-70
2023/09/21 05:53:52;;;;;;;;;5.00;4.67;;;;;19.37;78.02;99315.56;5020026;28;45381;-69
2023/09/21 05:56:19;;;;;;;;;4.00;4.00;;;;;19.43;78.17;99336.19;5007963;28;45521;-69
2023/09/21 05:58:46;;;;;;;;;4.00;3.00;;;;;19.44;78.81;99331.63;5030050;28;45402;-69
2023/09/21 06:01:12;;;;;;;;;6.00;4.00;;;;;19.46;78.36;99329.53;5015991;28;47809;-74
2023/09/21 06:03:37;;;;;;;;;3.00;2.00;;;;;19.48;77.72;99337.38;5023839;28;45432;-69
2023/09/21 06:06:06;;;;;;;;;3.33;3.33;;;;;19.48;78.04;99340.06;5024336;28;45428;-70
2023/09/21 06:08:32;;;;;;;;;2.00;2.00;;;;;19.45;78.35;99344.88;5019272;28;45424;-69
2023/09/21 06:10:57;;;;;;;;;4.00;4.00;;;;;19.41;78.21;99334.78;5037833;28;46224;-69
2023/09/21 06:13:25;;;;;;;;;3.75;3.75;;;;;19.53;78.18;99359.03;5030817;28;45298;-69
2023/09/21 06:15:50;;;;;;;;;3.75;3.50;;;;;19.46;77.74;99348.38;5026200;28;45323;-69
2023/09/21 06:18:17;;;;;;;;;3.75;2.50;;;;;19.49;77.80;99353.31;5017889;28;45475;-68
2023/09/21 06:20:46;;;;;;;;;1.00;1.00;;;;;19.38;77.47;99343.34;5029205;28;46973;-75
2023/09/21 06:23:11;;;;;;;;;3.75;3.75;;;;;19.35;77.84;99336.53;5024610;28;45290;-75
2023/09/21 06:25:36;;;;;;;;;2.00;2.00;;;;;19.44;77.69;99348.63;5019787;28;45962;-68
2023/09/21 06:28:03;;;;;;;;;3.00;3.00;;;;;19.48;77.80;99356.22;5033512;28;45474;-68
2023/09/21 06:30:28;;;;;;;;;2.00;2.00;;;;;19.54;77.44;99364.22;5036643;28;45640;-75
2023/09/21 06:32:55;;;;;;;;;3.50;3.00;;;;;19.41;77.84;99332.06;5010622;28;45397;-68
2023/09/21 06:35:23;;;;;;;;;4.50;2.75;;;;;19.54;77.39;99369.63;5018371;28;45391;-69
2023/09/21 06:37:54;;;;;;;;;6.50;3.50;;;;;19.40;77.67;99333.94;5009897;28;45531;-68
2023/09/21 06:40:20;;;;;;;;;4.00;2.25;;;;;19.57;77.41;99362.91;5018899;28;45850;-69
2023/09/21 06:42:45;;;;;;;;;3.00;3.00;;;;;19.51;77.58;99359.28;5028195;28;45440;-68
2023/09/21 06:45:10;;;;;;;;;5.50;4.00;;;;;19.57;77.70;99362.91;5038346;28;45558;-69
2023/09/21 06:47:36;;;;;;;;;3.50;3.50;;;;;18.78;77.55;99235.81;5023687;28;45621;-69
2023/09/21 06:50:03;;;;;;;;;3.25;3.00;;;;;19.57;77.59;99369.13;5022752;28;46411;-69
2023/09/21 06:52:28;;;;;;;;;1.75;1.75;;;;;19.49;77.73;99347.09;5018467;28;45444;-69
2023/09/21 06:54:54;;;;;;;;;6.25;5.25;;;;;19.56;77.62;99375.59;5004239;28;45503;-69
2023/09/21 06:57:23;;;;;;;;;4.00;4.00;;;;;19.45;78.03;99368.31;5019420;28;45452;-69
2023/09/21 06:59:51;;;;;;;;;5.00;5.00;;;;;19.58;78.21;99397.72;5018427;28;46646;-68
2023/09/21 07:02:16;;;;;;;;;4.75;4.75;;;;;19.51;78.45;99386.22;5019246;28;45565;-69
2023/09/21 07:04:41;;;;;;;;;3.25;3.25;;;;;19.52;78.71;99377.09;5026603;28;45748;-69
2023/09/21 07:07:07;;;;;;;;;6.50;3.75;;;;;19.28;78.60;99353.91;5026909;28;45379;-68
2023/09/21 07:09:37;;;;;;;;;6.25;5.25;;;;;19.49;78.81;99371.34;5024992;28;47367;-69
2023/09/21 07:12:04;;;;;;;;;4.00;4.00;;;;;19.35;79.01;99349.19;5028073;28;45198;-69
2023/09/21 07:14:32;;;;;;;;;3.75;3.75;;;;;19.26;79.25;99346.03;5025440;28;45377;-69
2023/09/21 07:16:59;;;;;;;;;5.00;5.00;;;;;19.38;80.03;99375.69;5019618;28;45184;-70
2023/09/21 07:19:24;;;;;;;;;5.00;3.00;;;;;19.26;79.80;99366.78;5027194;28;46616;-70
2023/09/21 07:21:50;;;;;;;;;3.00;3.00;;;;;19.09;80.29;99335.16;4992189;28;46370;-70
2023/09/21 07:24:15;;;;;;;;;3.50;3.00;;;;;19.24;80.02;99364.31;5008335;28;45457;-68
2023/09/21 07:26:43;;;;;;;;;4.50;3.50;;;;;19.24;80.63;99352.72;5045991;28;45265;-69
2023/09/21 07:29:08;;;;;;;;;4.00;3.00;;;;;19.37;80.13;99361.38;5023006;28;47545;-69
2023/09/21 07:31:35;;;;;;;;;1.75;1.75;;;;;19.29;79.89;99352.84;5002661;28;45476;-69
2023/09/21 07:34:01;;;;;;;;;2.00;2.00;;;;;19.20;79.86;99321.91;5027985;28;45340;-69
2023/09/21 07:36:27;;;;;;;;;4.00;4.00;;;;;19.23;79.72;99337.63;5020103;28;45514;-70
2023/09/21 07:38:53;;;;;;;;;9.50;4.00;;;;;19.27;80.22;99341.47;5023977;28;45832;-69
2023/09/21 07:41:19;;;;;;;;;3.00;3.00;;;;;19.31;79.72;99343.47;5019866;28;45495;-69
2023/09/21 07:43:45;;;;;;;;;2.75;2.75;;;;;19.27;79.66;99336.09;5024946;28;45649;-70
2023/09/21 07:46:11;;;;;;;;;3.75;3.75;;;;;19.26;80.05;99351.44;5026072;28;45202;-70
2023/09/21 07:48:36;;;;;;;;;3.00;3.00;;;;;19.25;80.27;99344.41;5027393;28;45528;-70
2023/09/21 07:51:06;;;;;;;;;2.50;2.50;;;;;18.94;80.21;99280.09;5020567;28;56154;-70
2023/09/21 07:53:32;;;;;;;;;2.75;2.75;;;;;19.13;80.36;99325.53;5039068;28;45323;-69
2023/09/21 07:56:04;;;;;;;;;2.00;2.00;;;;;19.15;80.11;99328.81;5020882;28;45699;-69
2023/09/21 07:58:29;;;;;;;;;6.25;3.50;;;;;19.24;80.02;99320.41;5019289;28;46560;-70
2023/09/21 08:00:55;;;;;;;;;5.00;4.00;;;;;19.28;80.14;99335.84;5018396;28;45598;-70
2023/09/21 08:03:25;;;;;;;;;5.00;4.00;;;;;19.31;80.28;99337.25;5033696;28;45503;-69
2023/09/21 08:05:51;;;;;;;;;3.00;2.00;;;;;19.34;79.80;99331.38;5024874;28;45568;-70
2023/09/21 08:08:16;;;;;;;;;3.00;3.00;;;;;19.24;79.89;99315.00;5028707;28;46741;-69
2023/09/21 08:10:42;;;;;;;;;3.75;2.25;;;;;18.89;79.17;99258.44;5031107;28;45464;-69
2023/09/21 08:13:08;;;;;;;;;4.50;3.00;;;;;19.27;79.22;99322.63;5004170;28;45646;-70
2023/09/21 08:15:33;;;;;;;;;2.00;2.00;;;;;19.28;79.13;99324.25;5032872;28;45502;-70
2023/09/21 08:18:00;;;;;;;;;2.00;2.00;;;;;19.12;78.97;99302.34;5025590;28;46522;-70
2023/09/21 08:20:26;;;;;;;;;5.50;5.00;;;;;19.29;79.06;99312.41;5020569;28;45441;-69
2023/09/21 08:22:52;;;;;;;;;5.75;3.75;;;;;18.96;79.28;99276.09;5029607;28;45561;-68
2023/09/21 08:25:17;;;;;;;;;5.50;3.00;;;;;19.29;79.00;99328.59;5032307;28;45538;-70
2023/09/21 08:27:42;;;;;;;;;3.00;3.00;;;;;19.27;79.00;99309.16;5025832;28;46503;-69
2023/09/21 08:30:08;;;;;;;;;3.50;3.00;;;;;19.21;78.61;99308.19;5028025;28;46158;-70
2023/09/21 08:32:33;;;;;;;;;3.00;3.00;;;;;19.28;78.94;99316.16;5038336;28;45444;-70
2023/09/21 08:34:59;;;;;;;;;3.75;3.75;;;;;19.17;78.88;99298.13;5026420;28;45468;-69
2023/09/21 08:37:24;;;;;;;;;2.75;2.00;;;;;19.21;78.67;99310.06;5031402;28;45384;-69
2023/09/21 08:39:50;;;;;;;;;1.50;1.50;;;;;19.27;78.57;99320.75;5015885;28;45503;-70
2023/09/21 08:42:15;;;;;;;;;2.75;2.50;;;;;18.91;78.60;99267.91;5024824;28;45573;-69
2023/09/21 08:44:43;;;;;;;;;4.00;4.00;;;;;19.24;78.99;99304.22;5045551;28;45560;-69
2023/09/21 08:47:15;;;;;;;;;2.00;2.00;;;;;19.27;78.88;99311.84;5022518;28;47623;-68
2023/09/21 08:49:45;;;;;;;;;4.00;3.00;;;;;19.23;78.80;99307.97;5022121;28;45471;-70
2023/09/21 08:52:12;;;;;;;;;2.25;2.25;;;;;18.91;78.60;99250.94;5019505;28;45843;-70
2023/09/21 08:54:40;;;;;;;;;3.75;2.50;;;;;19.21;78.78;99315.44;5017593;28;45554;-68
2023/09/21 08:57:13;;;;;;;;;3.00;3.00;;;;;19.28;78.69;99310.78;5034741;28;47167;-69
2023/09/21 08:59:44;;;;;;;;;4.00;2.00;;;;;19.26;78.56;99294.03;5014671;28;45631;-68
2023/09/21 09:02:12;;;;;;;;;6.75;6.00;;;;;19.41;77.99;99316.72;5031071;28;45366;-70
2023/09/21 09:04:43;;;;;;;;;3.00;3.00;;;;;19.45;77.24;99311.72;5006897;28;45993;-69
2023/09/21 09:07:10;;;;;;;;;4.75;4.75;;;;;19.42;77.88;99301.38;5021808;28;45743;-69
2023/09/21 09:09:39;;;;;;;;;2.75;2.75;;;;;19.42;77.77;99302.22;5026244;28;45590;-69
2023/09/21 09:12:19;;;;;;;;;3.25;3.25;;;;;19.50;77.79;99292.94;5034922;28;45506;-69
2023/09/21 09:14:44;;;;;;;;;7.67;7.67;;;;;19.55;77.75;99301.16;5016071;28;45415;-69
2023/09/21 09:17:13;;;;;;;;;7.25;7.25;;;;;19.56;77.68;99281.22;4996908;28;54199;-69
2023/09/21 09:19:39;;;;;;;;;3.25;2.25;;;;;19.60;77.00;99279.69;5020514;28;45593;-70
2023/09/21 09:22:04;;;;;;;;;3.50;3.50;;;;;19.58;76.51;99262.13;5019581;28;45507;-68
2023/09/21 09:24:31;;;;;;;;;2.75;2.75;;;;;19.59;76.94;99264.56;5018105;28;45345;-68
2023/09/21 09:26:57;;;;;;;;;2.00;2.00;;;;;19.57;77.04;99255.91;5015356;28;46508;-69
2023/09/21 09:29:24;;;;;;;;;1.75;1.00;;;;;19.62;76.75;99253.34;5031189;28;45415;-68
2023/09/21 09:31:50;;;;;;;;;4.75;3.75;;;;;19.71;76.78;99251.88;5022612;28;45249;-69
2023/09/21 09:34:18;;;;;;;;;4.75;3.50;;;;;19.72;76.72;99258.91;4974202;28;1171949;-69
2023/09/21 09:36:54;;;;;;;;;3.50;3.50;;;;;19.77;76.72;99255.50;5015669;28;46514;-69
2023/09/21 09:39:19;;;;;;;;;6.25;6.25;;;;;19.74;76.46;99262.19;5019004;28;45563;-68
2023/09/21 09:41:50;;;;;;;;;4.00;4.00;;;;;19.32;76.65;99179.91;5025025;28;45321;-70
2023/09/21 09:44:21;;;;;;;;;5.25;5.00;;;;;19.64;77.03;99262.00;5034333;28;45663;-69
2023/09/21 09:46:48;;;;;;;;;4.75;2.00;;;;;19.67;77.24;99263.41;5022897;28;47363;-69
2023/09/21 09:49:14;;;;;;;;;3.75;2.00;;;;;19.47;77.75;99236.81;5026535;28;45502;-69
2023/09/21 09:51:41;;;;;;;;;4.00;3.00;;;;;19.58;77.65;99265.63;5029798;28;45499;-70
2023/09/21 09:54:11;;;;;;;;;2.50;2.50;;;;;19.62;77.85;99268.66;5024496;28;45508;-69
2023/09/21 09:56:41;;;;;;;;;2.00;1.50;;;;;19.64;78.44;99278.19;5034837;28;47461;-70
2023/09/21 09:59:09;;;;;;;;;2.00;2.00;;;;;19.53;78.13;99240.44;5020850;28;45520;-69
2023/09/21 10:01:37;;;;;;;;;2.50;2.50;;;;;19.62;78.22;99266.81;5025748;28;45570;-69
2023/09/21 10:04:05;;;;;;;;;4.00;3.00;;;;;19.53;78.52;99254.72;5021977;28;45526;-68
2023/09/21 10:06:32;;;;;;;;;1.00;1.00;;;;;19.44;78.27;99243.50;5030046;28;46401;-69
2023/09/21 10:08:57;;;;;;;;;3.00;3.00;;;;;19.53;77.50;99254.72;5025171;28;45471;-69
2023/09/21 10:11:24;;;;;;;;;1.25;1.25;;;;;19.51;77.51;99247.94;5022247;28;45464;-70
2023/09/21 10:13:55;;;;;;;;;2.00;1.00;;;;;19.63;77.04;99246.88;5019684;28;45584;-69
2023/09/21 10:16:24;;;;;;;;;1.25;1.25;;;;;19.74;77.07;99253.28;5022486;28;47214;-69
2023/09/21 10:18:57;;;;;;;;;0.75;0.75;;;;;19.78;76.54;99248.22;5027312;28;46011;-69
2023/09/21 10:21:33;;;;;;;;;2.00;1.00;;;;;19.73;76.25;99244.38;5023924;28;45551;-72
2023/09/21 10:24:18;;;;;;;;;2.25;2.00;;;;;19.86;77.07;99269.44;5029888;28;45688;-70
2023/09/21 10:26:46;;;;;;;;;2.50;2.50;;;;;20.01;76.07;99267.00;5021648;28;46593;-71
2023/09/21 10:29:12;;;;;;;;;3.00;2.00;;;;;20.02;74.65;99263.25;5027888;28;45420;-69
2023/09/21 10:31:39;;;;;;;;;6.50;4.25;;;;;20.11;74.60;99271.78;5027047;28;46240;-69
2023/09/21 10:34:08;;;;;;;;;11.25;9.00;;;;;20.28;74.27;99283.44;5026859;28;45562;-68
2023/09/21 10:36:38;;;;;;;;;4.50;3.00;;;;;20.05;73.06;99252.00;5022165;28;47606;-69
2023/09/21 10:39:06;;;;;;;;;5.00;4.00;;;;;20.45;72.11;99297.81;5025591;28;45287;-69
2023/09/21 10:41:35;;;;;;;;;1.75;1.75;;;;;20.45;71.67;99297.00;5014891;28;45422;-68
2023/09/21 10:44:02;;;;;;;;;3.00;3.00;;;;;20.38;71.01;99294.41;5021767;28;46746;-68
2023/09/21 10:46:34;;;;;;;;;3.00;2.00;;;;;20.52;71.70;99311.16;5024669;28;47632;-71
2023/09/21 10:49:11;;;;;;;;;3.25;3.25;;;;;20.59;71.75;99311.81;5025447;28;45499;-68
2023/09/21 10:51:39;;;;;;;;;2.00;2.00;;;;;20.50;71.42;99302.47;5014986;28;45617;-69
2023/09/21 10:54:08;;;;;;;;;1.00;1.00;;;;;20.32;70.12;99280.00;5029239;28;45518;-68
2023/09/21 10:56:37;;;;;;;;;1.75;1.00;;;;;20.58;69.47;99326.38;5032767;28;46300;-69
2023/09/21 10:59:03;;;;;;;;;2.75;2.75;;;;;20.34;69.31;99304.88;5026166;28;46404;-70
2023/09/21 11:01:29;;;;;;;;;2.50;2.00;;;;;20.53;68.87;99345.19;5029409;28;45279;-70
2023/09/21 11:03:55;;;;;;;;;0.25;0.25;;;;;20.51;67.71;99341.91;5023950;28;45276;-69
2023/09/21 11:06:20;;;;;;;;;0.00;0.00;;;;;19.90;67.84;99238.22;5026485;28;45511;-69
2023/09/21 11:08:46;;;;;;;;;1.00;1.00;;;;;20.11;67.26;99280.69;5022865;28;48552;-69
2023/09/21 11:11:12;;;;;;;;;1.00;1.00;;;;;20.39;66.58;99314.94;5021885;28;45321;-69
2023/09/21 11:13:39;;;;;;;;;0.00;0.00;;;;;20.32;66.99;99285.41;5025422;28;45399;-69
2023/09/21 11:16:05;;;;;;;;;1.25;1.25;;;;;20.35;66.39;99284.09;5026157;28;46635;-69
2023/09/21 11:18:31;;;;;;;;;0.75;0.75;;;;;19.94;65.54;99233.97;5026847;28;45531;-74
2023/09/21 11:20:58;;;;;;;;;0.75;0.75;;;;;20.16;65.91;99261.91;5037689;28;45430;-69
2023/09/21 11:23:23;;;;;;;;;0.75;0.75;;;;;19.82;64.08;99200.84;5012618;28;46128;-68
2023/09/21 11:25:49;;;;;;;;;2.75;1.00;;;;;19.79;64.99;99199.44;5032361;28;46541;-69
2023/09/21 11:28:22;;;;;;;;;3.00;0.25;;;;;20.02;64.28;99263.25;5024906;28;45494;-68
2023/09/21 11:30:51;;;;;;;;;2.00;2.00;;;;;20.01;65.01;99293.97;5018396;28;45414;-70
2023/09/21 11:33:19;;;;;;;;;1.00;1.00;;;;;19.86;65.38;99272.13;5022634;28;45549;-69
2023/09/21 11:35:45;;;;;;;;;3.00;2.00;;;;;19.80;66.06;99256.88;5025154;28;46734;-70